Aegean Power — SXQH — position and weather

sailwx.info

Track history (hours):
 
Tides and Currents Weather Stations Pressure Air Temp Water Temp Dewpoint Dewpoint Depression Visibility Wind Speed Wind Dir Waves Ship Positions

Aegean Power

Last reported at 2017-Dec-15 11:14 UTC. Time now 2017-Dec-18 20:40 UTC.
Position N 36°30' E 026°49'.

Length 249 m; draft 8 m.

Type: Ship. MMSI: 240594000.

Date/timePositionNaut miles runAvg speedWind from/ knotsBaromVisibWave heightAir tempDewpointWater temp
2017-Dec-15 11:14N 36°30' E 026°49'311.2
2017-Dec-15 11:00N 36°33' E 026°48'2210.8
2017-Dec-15 08:58N 36°54' E 026°39'510.5
2017-Dec-15 08:30N 36°58' E 026°38'610.7
2017-Dec-15 07:58N 37°03' E 026°34'511.6
2017-Dec-15 07:30N 37°06' E 026°29'611.2
2017-Dec-15 07:00N 37°10' E 026°23'510.7
2017-Dec-15 06:30N 37°13' E 026°18'611.0
2017-Dec-15 05:56N 37°17' E 026°12'510.9
2017-Dec-15 05:30N 37°20' E 026°07'611.3
2017-Dec-15 05:00N 37°23' E 026°01'611.2
2017-Dec-15 04:30N 37°27' E 025°56'5 9.4
2017-Dec-15 04:00N 37°31' E 025°53'1610.8
2017-Dec-15 02:30N 37°46' E 025°59'  
2017-Dec-12 18:47N 38°58' E 026°07'412.3
2017-Dec-12 18:29N 38°60' E 026°02'  
Track history (hours):
 
Tides and Currents Weather Stations Pressure Air Temp Water Temp Dewpoint Dewpoint Depression Visibility Wind Speed Wind Dir Waves Ship Positions

Aegean Power

Last reported at 2017-Dec-15 11:14 UTC. Time now 2017-Dec-18 20:40 UTC.
Position N 36°30' E 026°49'.

Length 249 m; draft 8 m.

Type: Ship. MMSI: 240594000.

Date/timePositionNaut miles runAvg speedWind from/ knotsBaromVisibWave heightAir tempDewpointWater temp
2017-Dec-15 11:14N 36°30' E 026°49'311.2
2017-Dec-15 11:00N 36°33' E 026°48'2210.8
2017-Dec-15 08:58N 36°54' E 026°39'510.5
2017-Dec-15 08:30N 36°58' E 026°38'610.7
2017-Dec-15 07:58N 37°03' E 026°34'511.6
2017-Dec-15 07:30N 37°06' E 026°29'611.2
2017-Dec-15 07:00N 37°10' E 026°23'510.7
2017-Dec-15 06:30N 37°13' E 026°18'611.0
2017-Dec-15 05:56N 37°17' E 026°12'510.9
2017-Dec-15 05:30N 37°20' E 026°07'611.3
2017-Dec-15 05:00N 37°23' E 026°01'611.2
2017-Dec-15 04:30N 37°27' E 025°56'5 9.4
2017-Dec-15 04:00N 37°31' E 025°53'1610.8
2017-Dec-15 02:30N 37°46' E 025°59'  
2017-Dec-12 18:47N 38°58' E 026°07'412.3
2017-Dec-12 18:29N 38°60' E 026°02'  

Dump ship's entire track history